createdAt,value
2018-03-08T00:00:48.125Z,10.03
2018-03-08T00:03:15.615Z,8.43
2018-03-08T00:05:43.087Z,8.60
2018-03-08T00:08:10.571Z,9.37
2018-03-08T00:10:39.289Z,10.50
2018-03-08T00:13:06.793Z,8.23
2018-03-08T00:15:34.270Z,8.70
2018-03-08T00:18:01.797Z,9.27
2018-03-08T00:20:29.270Z,9.87
2018-03-08T00:22:56.764Z,10.40
2018-03-08T00:25:24.237Z,9.63
2018-03-08T00:27:51.741Z,10.67
2018-03-08T00:30:19.205Z,11.17
2018-03-08T00:32:46.814Z,9.53
2018-03-08T00:35:14.309Z,12.00
2018-03-08T00:37:41.874Z,11.60
2018-03-08T00:40:09.398Z,11.03
2018-03-08T00:42:36.866Z,10.53
2018-03-08T00:45:04.359Z,11.60
2018-03-08T00:47:31.845Z,10.67
2018-03-08T00:50:00.109Z,10.60
2018-03-08T00:52:28.347Z,10.37
2018-03-08T00:54:55.867Z,9.50
2018-03-08T00:57:23.347Z,9.23
2018-03-08T00:59:50.850Z,11.47
2018-03-08T01:02:19.091Z,11.57
2018-03-08T01:04:46.591Z,12.13
2018-03-08T01:07:14.819Z,11.63
2018-03-08T01:09:42.332Z,11.30
2018-03-08T01:12:10.584Z,13.87
2018-03-08T01:14:38.094Z,14.70
2018-03-08T01:17:06.341Z,12.70
2018-03-08T01:19:34.615Z,12.60
2018-03-08T01:22:02.853Z,12.37
2018-03-08T01:24:31.133Z,14.83
2018-03-08T01:26:58.754Z,12.03
2018-03-08T01:29:26.243Z,12.97
2018-03-08T01:31:53.723Z,14.13
2018-03-08T01:34:21.226Z,14.20
2018-03-08T01:36:48.786Z,13.40
2018-03-08T01:39:16.286Z,13.57
2018-03-08T01:41:43.763Z,13.13
2018-03-08T01:44:11.263Z,12.33
2018-03-08T01:46:38.755Z,15.17
2018-03-08T01:49:06.239Z,12.83
2018-03-08T01:51:34.559Z,16.17
2018-03-08T01:54:02.090Z,14.80
2018-03-08T01:56:30.664Z,13.73
2018-03-08T01:58:58.148Z,14.27
2018-03-08T02:01:25.627Z,15.03
2018-03-08T02:03:53.118Z,13.97
2018-03-08T02:06:20.590Z,16.43
2018-03-08T02:08:48.815Z,16.97
2018-03-08T02:11:16.302Z,16.47
2018-03-08T02:13:43.784Z,15.33
2018-03-08T02:16:12.055Z,15.43
2018-03-08T02:18:40.296Z,18.40
2018-03-08T02:21:08.579Z,16.73
2018-03-08T02:23:36.052Z,15.47
2018-03-08T02:26:03.561Z,15.83
2018-03-08T02:28:31.026Z,13.50
2018-03-08T02:30:58.534Z,15.80
2018-03-08T02:33:26.012Z,14.53
2018-03-08T02:35:54.268Z,13.63
2018-03-08T02:38:21.764Z,13.33
2018-03-08T02:40:49.244Z,13.03
2018-03-08T02:43:16.744Z,14.90
2018-03-08T02:45:44.229Z,13.13
2018-03-08T02:48:11.738Z,14.90
2018-03-08T02:50:39.653Z,15.03
2018-03-08T02:53:07.230Z,15.63
2018-03-08T02:55:34.707Z,15.53
2018-03-08T02:58:02.345Z,15.37
2018-03-08T03:00:29.830Z,14.47
2018-03-08T03:02:57.297Z,15.20
2018-03-08T03:05:24.823Z,17.67
2018-03-08T03:07:52.278Z,19.63
2018-03-08T03:10:19.794Z,19.43
2018-03-08T03:12:47.302Z,21.77
2018-03-08T03:15:14.760Z,16.40
2018-03-08T03:17:43.128Z,21.20
2018-03-08T03:20:10.662Z,25.80
2018-03-08T03:22:38.889Z,20.10
2018-03-08T03:25:06.391Z,21.67
2018-03-08T03:27:34.661Z,20.53
2018-03-08T03:30:02.982Z,26.27
2018-03-08T03:32:30.460Z,23.13
2018-03-08T03:34:57.959Z,19.27
2018-03-08T03:37:26.188Z,25.17
2018-03-08T03:39:53.729Z,21.10
2018-03-08T03:42:21.196Z,20.87
2018-03-08T03:44:48.695Z,18.23
2018-03-08T03:47:16.179Z,23.83
2018-03-08T03:49:43.689Z,21.73
2018-03-08T03:52:11.932Z,20.23
2018-03-08T03:54:39.453Z,18.27
2018-03-08T03:57:07.694Z,20.10
2018-03-08T03:59:35.189Z,17.70
2018-03-08T04:02:03.428Z,16.60
2018-03-08T04:04:30.971Z,15.70
2018-03-08T04:06:59.180Z,16.73
2018-03-08T04:09:26.688Z,13.53
2018-03-08T04:11:54.351Z,13.90
2018-03-08T04:14:21.947Z,14.53
2018-03-08T04:16:49.418Z,12.70
2018-03-08T04:19:16.929Z,10.97
2018-03-08T04:21:44.410Z,13.80
2018-03-08T04:24:11.878Z,13.13
2018-03-08T04:26:39.405Z,12.40
2018-03-08T04:29:06.871Z,10.70
2018-03-08T04:31:34.360Z,13.23
2018-03-08T04:34:01.845Z,12.30
2018-03-08T04:36:30.125Z,10.03
2018-03-08T04:38:58.364Z,10.80
2018-03-08T04:41:25.860Z,11.37
2018-03-08T04:43:54.095Z,11.03
2018-03-08T04:46:21.779Z,11.07
2018-03-08T04:48:49.257Z,13.77
2018-03-08T04:51:17.556Z,10.23
2018-03-08T04:53:45.112Z,13.30
2018-03-08T04:56:12.568Z,11.60
2018-03-08T04:58:40.131Z,13.80
2018-03-08T05:01:07.614Z,14.57
2018-03-08T05:03:35.134Z,13.73
2018-03-08T05:06:02.624Z,14.07
2018-03-08T05:08:30.116Z,16.53
2018-03-08T05:10:57.603Z,16.33
2018-03-08T05:13:25.898Z,19.10
2018-03-08T05:15:53.362Z,15.83
2018-03-08T05:18:20.865Z,17.93
2018-03-08T05:20:48.345Z,15.87
2018-03-08T05:23:16.625Z,17.53
2018-03-08T05:25:44.878Z,16.33
2018-03-08T05:28:12.388Z,19.03
2018-03-08T05:30:39.891Z,19.57
2018-03-08T05:33:07.439Z,24.53
2018-03-08T05:35:34.920Z,27.37
2018-03-08T05:38:03.186Z,28.53
2018-03-08T05:40:30.657Z,24.50
2018-03-08T05:42:58.972Z,20.57
2018-03-08T05:45:27.201Z,18.77
2018-03-08T05:47:54.713Z,22.40
2018-03-08T05:50:22.187Z,22.70
2018-03-08T05:52:49.703Z,23.17
2018-03-08T05:55:17.197Z,19.43
2018-03-08T05:57:44.723Z,23.80
2018-03-08T06:00:13.027Z,23.83
2018-03-08T06:02:41.061Z,25.37
2018-03-08T06:05:08.552Z,22.60
2018-03-08T06:07:36.064Z,23.23
2018-03-08T06:10:04.324Z,23.13
2018-03-08T06:12:31.795Z,24.23
2018-03-08T06:15:00.077Z,23.50
2018-03-08T06:17:28.333Z,23.07
2018-03-08T06:19:55.841Z,26.57
2018-03-08T06:22:23.336Z,25.43
2018-03-08T06:24:50.858Z,24.87
2018-03-08T06:27:18.332Z,22.70
2018-03-08T06:29:45.850Z,21.97
2018-03-08T06:32:13.328Z,26.10
2018-03-08T06:34:40.857Z,21.87
2018-03-08T06:37:09.101Z,29.17
2018-03-08T06:39:36.610Z,21.93
2018-03-08T06:42:04.084Z,26.97
2018-03-08T06:44:31.587Z,23.83
2018-03-08T06:46:59.056Z,28.30
2018-03-08T06:49:27.396Z,25.93
2018-03-08T06:51:54.877Z,23.53
2018-03-08T06:54:22.403Z,22.80
2018-03-08T06:56:49.882Z,22.13
2018-03-08T06:59:18.123Z,23.73
2018-03-08T07:01:45.641Z,25.57
2018-03-08T07:04:13.119Z,21.87
2018-03-08T07:06:40.625Z,21.93
2018-03-08T07:09:08.168Z,21.63
2018-03-08T07:11:35.667Z,21.80
2018-03-08T07:14:03.136Z,19.47
2018-03-08T07:16:31.421Z,17.23
2018-03-08T07:18:59.676Z,20.77
2018-03-08T07:21:28.059Z,21.67
2018-03-08T07:23:55.716Z,18.27
2018-03-08T07:26:23.223Z,16.97
2018-03-08T07:28:50.702Z,15.90
2018-03-08T07:31:18.215Z,14.90
2018-03-08T07:33:46.472Z,14.93
2018-03-08T07:36:14.761Z,13.93
2018-03-08T07:38:42.223Z,12.07
2018-03-08T07:41:10.473Z,17.57
2018-03-08T07:43:37.982Z,11.53
2018-03-08T07:46:05.545Z,11.53
2018-03-08T07:48:33.014Z,13.23
2018-03-08T07:51:00.496Z,11.03
2018-03-08T07:53:28.001Z,12.70
2018-03-08T07:55:55.472Z,10.83
2018-03-08T07:58:22.967Z,8.87
2018-03-08T08:00:50.444Z,13.27
2018-03-08T08:03:18.185Z,11.17
2018-03-08T08:06:06.363Z,9.23
2018-03-08T08:08:46.187Z,11.50
2018-03-08T08:11:13.673Z,11.80
2018-03-08T08:13:41.946Z,11.70
2018-03-08T08:16:09.422Z,11.77
2018-03-08T08:18:36.923Z,11.20
2018-03-08T08:21:04.425Z,13.77
2018-03-08T08:23:31.929Z,11.90
2018-03-08T08:25:59.448Z,11.97
2018-03-08T08:28:26.971Z,12.73
2018-03-08T08:30:54.455Z,14.27
2018-03-08T08:33:21.962Z,11.67
2018-03-08T08:35:49.443Z,11.07
2018-03-08T08:38:17.022Z,12.20
2018-03-08T08:40:45.284Z,13.07
2018-03-08T08:43:12.787Z,11.93
2018-03-08T08:45:40.275Z,13.13
2018-03-08T08:48:07.781Z,11.87
2018-03-08T08:50:36.018Z,10.20
2018-03-08T08:53:03.518Z,8.33
2018-03-08T08:55:31.753Z,8.47
2018-03-08T08:57:59.263Z,8.60
2018-03-08T09:00:26.837Z,9.87
2018-03-08T09:02:54.328Z,8.37
2018-03-08T09:05:21.809Z,7.67
2018-03-08T09:07:49.313Z,8.03
2018-03-08T09:10:16.792Z,5.37
2018-03-08T09:12:44.314Z,7.80
2018-03-08T09:15:11.806Z,10.03
2018-03-08T09:17:39.296Z,7.33
2018-03-08T09:20:06.767Z,10.00
2018-03-08T09:22:35.053Z,8.60
2018-03-08T09:25:02.516Z,6.73
2018-03-08T09:27:30.800Z,5.33
2018-03-08T09:29:58.305Z,9.07
2018-03-08T09:32:25.775Z,6.03
2018-03-08T09:34:53.262Z,6.77
2018-03-08T09:37:20.836Z,6.70
2018-03-08T09:39:48.354Z,9.73
2018-03-08T09:42:16.596Z,7.03
2018-03-08T09:44:44.096Z,5.27
2018-03-08T09:47:12.351Z,6.50
2018-03-08T09:49:39.854Z,6.97
2018-03-08T09:52:07.359Z,8.10
2018-03-08T09:54:34.874Z,5.70
2018-03-08T09:57:02.357Z,4.13
2018-03-08T09:59:29.863Z,6.40
2018-03-08T10:01:58.108Z,5.97
2018-03-08T10:04:25.622Z,6.90
2018-03-08T10:06:53.129Z,6.30
2018-03-08T10:09:20.667Z,5.57
2018-03-08T10:11:48.159Z,4.53
2018-03-08T10:14:15.650Z,4.37
2018-03-08T10:16:43.150Z,5.43
2018-03-08T10:19:10.644Z,4.57
2018-03-08T10:21:45.149Z,4.07
2018-03-08T10:24:05.690Z,5.00
2018-03-08T10:26:33.202Z,3.43
2018-03-08T10:29:00.747Z,6.13
2018-03-08T10:31:28.948Z,5.07
2018-03-08T10:33:56.416Z,5.10
2018-03-08T10:36:24.675Z,4.03
2018-03-08T10:38:52.151Z,5.93
2018-03-08T10:41:20.431Z,5.10
2018-03-08T10:43:47.896Z,5.83
2018-03-08T10:46:15.419Z,6.10
2018-03-08T10:51:10.415Z,4.77
2018-03-08T10:53:38.656Z,5.50
2018-03-08T10:56:06.184Z,4.20
2018-03-08T10:58:33.664Z,4.47
2018-03-08T11:01:01.939Z,4.90
2018-03-08T11:03:35.852Z,6.50
2018-03-08T11:06:18.235Z,8.13
2018-03-08T11:08:46.503Z,6.87
2018-03-08T11:11:14.008Z,4.10
2018-03-08T11:13:41.496Z,7.40
2018-03-08T11:16:08.980Z,5.63
2018-03-08T11:18:36.479Z,6.43
2018-03-08T11:21:03.979Z,7.57
2018-03-08T11:23:31.493Z,4.80
2018-03-08T11:25:58.967Z,6.00
2018-03-08T11:28:26.458Z,5.33
2018-03-08T11:30:53.934Z,4.20
2018-03-08T11:33:22.207Z,5.73
2018-03-08T11:35:49.676Z,7.53
2018-03-08T11:38:18.026Z,7.13
2018-03-08T11:40:45.552Z,6.20
2018-03-08T11:43:13.054Z,6.70
2018-03-08T11:45:40.568Z,5.20
2018-03-08T11:48:08.063Z,3.40
2018-03-08T11:50:35.536Z,8.07
2018-03-08T11:53:03.816Z,3.63
2018-03-08T11:55:32.074Z,3.93
2018-03-08T11:57:59.580Z,8.13
2018-03-08T12:00:27.079Z,4.40
2018-03-08T12:02:54.595Z,5.53
2018-03-08T12:05:22.055Z,4.67
2018-03-08T12:07:49.561Z,4.50
2018-03-08T12:10:17.278Z,3.10
2018-03-08T12:12:45.622Z,4.60
2018-03-08T12:15:13.860Z,7.33
2018-03-08T12:17:41.388Z,4.83
2018-03-08T12:20:08.892Z,5.80
2018-03-08T12:22:36.389Z,4.83
2018-03-08T12:25:03.867Z,4.00
2018-03-08T12:27:31.379Z,4.30
2018-03-08T12:29:58.840Z,4.97
2018-03-08T12:32:27.078Z,3.70
2018-03-08T12:34:54.583Z,3.00
2018-03-08T12:37:22.827Z,3.63
2018-03-08T12:39:50.325Z,3.50
2018-03-08T12:42:18.564Z,3.97
2018-03-08T12:44:46.078Z,3.87
2018-03-08T12:47:13.563Z,3.03
2018-03-08T12:49:41.864Z,5.37
2018-03-08T12:52:09.352Z,5.37
2018-03-08T12:54:37.616Z,4.77
2018-03-08T12:57:05.875Z,4.27
2018-03-08T12:59:33.372Z,4.37
2018-03-08T13:02:00.852Z,3.63
2018-03-08T13:04:28.355Z,4.87
2018-03-08T13:06:55.838Z,2.90
2018-03-08T13:09:23.348Z,5.13
2018-03-08T13:11:50.868Z,3.70
2018-03-08T13:14:18.394Z,4.80
2018-03-08T13:16:46.648Z,3.17
2018-03-08T13:19:14.157Z,3.90
2018-03-08T13:21:41.628Z,3.37
2018-03-08T13:24:09.156Z,3.67
2018-03-08T13:26:37.412Z,4.07
2018-03-08T13:29:04.947Z,2.50
2018-03-08T13:31:32.446Z,2.97
2018-03-08T13:34:00.679Z,3.17
2018-03-08T13:36:28.198Z,4.03
2018-03-08T13:38:55.682Z,4.30
2018-03-08T13:41:23.296Z,3.90
2018-03-08T13:43:51.550Z,3.90
2018-03-08T13:46:19.165Z,4.70
2018-03-08T13:48:46.673Z,3.43
2018-03-08T13:51:14.151Z,2.40
2018-03-08T13:53:42.416Z,4.37
2018-03-08T13:56:10.733Z,3.03
2018-03-08T13:58:38.225Z,3.23
2018-03-08T14:01:05.708Z,1.97
2018-03-08T14:03:33.218Z,2.83
2018-03-08T14:06:00.692Z,2.50
2018-03-08T14:08:28.234Z,3.30
2018-03-08T14:10:55.742Z,2.57
2018-03-08T14:13:23.244Z,3.37
2018-03-08T14:15:51.218Z,3.23
2018-03-08T14:18:18.789Z,1.80
2018-03-08T14:20:46.303Z,3.63
2018-03-08T14:23:14.569Z,2.43
2018-03-08T14:25:42.038Z,2.93
2018-03-08T14:28:10.309Z,2.20
2018-03-08T14:30:38.980Z,2.63
2018-03-08T14:33:07.244Z,2.33
2018-03-08T14:35:34.731Z,1.50
2018-03-08T14:38:03.005Z,1.93
2018-03-08T14:40:30.529Z,2.20
2018-03-08T14:42:58.055Z,1.37
2018-03-08T14:45:25.542Z,2.07
2018-03-08T14:47:53.029Z,2.20
2018-03-08T14:50:21.332Z,2.87
2018-03-08T14:52:48.860Z,1.20
2018-03-08T14:55:17.107Z,2.70
2018-03-08T14:57:44.594Z,1.97
2018-03-08T15:00:12.159Z,2.13
2018-03-08T15:02:39.632Z,1.87
2018-03-08T15:05:07.905Z,2.67
2018-03-08T15:07:36.196Z,1.30
2018-03-08T15:10:03.695Z,2.60
2018-03-08T15:12:31.181Z,3.33
2018-03-08T15:14:59.475Z,3.50
2018-03-08T15:17:27.747Z,3.13
2018-03-08T15:19:56.021Z,3.33
2018-03-08T15:22:24.336Z,2.40
2018-03-08T15:24:51.856Z,1.73
2018-03-08T15:27:20.159Z,3.17
2018-03-08T15:29:47.678Z,2.17
2018-03-08T15:32:15.158Z,3.57
2018-03-08T15:34:42.675Z,3.30
2018-03-08T15:37:10.154Z,2.37
2018-03-08T15:39:37.654Z,1.67
2018-03-08T15:42:05.136Z,3.33
2018-03-08T15:44:32.664Z,1.40
2018-03-08T15:47:00.155Z,3.17
2018-03-08T15:49:27.666Z,2.67
2018-03-08T15:51:55.156Z,1.43
2018-03-08T15:54:22.649Z,2.30
2018-03-08T15:56:50.143Z,1.53
2018-03-08T15:59:17.651Z,2.63
2018-03-08T16:01:45.821Z,1.77
2018-03-08T16:04:13.336Z,3.20
2018-03-08T16:07:05.545Z,1.43
2018-03-08T16:09:44.893Z,2.40
2018-03-08T16:12:13.149Z,3.27
2018-03-08T16:14:40.671Z,5.33
2018-03-08T16:17:08.171Z,3.80
2018-03-08T16:19:35.690Z,4.40
2018-03-08T16:22:03.197Z,8.30
2018-03-08T16:24:31.461Z,4.03
2018-03-08T16:26:58.939Z,5.73
2018-03-08T16:29:27.264Z,6.07
2018-03-08T16:31:54.757Z,3.73
2018-03-08T16:34:22.259Z,2.47
2018-03-08T16:36:49.740Z,1.80
2018-03-08T16:39:17.612Z,2.37
2018-03-08T16:41:45.111Z,3.67
2018-03-08T16:44:13.441Z,2.20
2018-03-08T16:46:40.916Z,1.30
2018-03-08T16:49:08.400Z,3.43
2018-03-08T16:51:36.688Z,1.73
2018-03-08T16:54:04.918Z,1.83
2018-03-08T16:56:32.433Z,1.60
2018-03-08T16:58:59.893Z,2.90
2018-03-08T17:01:27.415Z,1.90
2018-03-08T17:03:54.880Z,2.90
2018-03-08T17:06:23.182Z,2.43
2018-03-08T17:08:50.680Z,7.00
2018-03-08T17:11:18.208Z,5.93
2018-03-08T17:13:45.696Z,6.13
2018-03-08T17:16:13.196Z,10.53
2018-03-08T17:18:41.494Z,10.03
2018-03-08T17:21:09.741Z,8.97
2018-03-08T17:23:37.264Z,14.53
2018-03-08T17:26:04.733Z,9.53
2018-03-08T17:28:32.272Z,13.30
2018-03-08T17:30:59.794Z,9.77
2018-03-08T17:33:27.258Z,9.27
2018-03-08T17:35:54.793Z,7.07
2018-03-08T17:38:23.036Z,8.53
2018-03-08T17:40:50.544Z,10.17
2018-03-08T17:43:18.019Z,9.33
2018-03-08T17:45:45.554Z,10.27
2018-03-08T17:48:13.835Z,11.17
2018-03-08T17:50:41.345Z,12.47
2018-03-08T17:53:08.820Z,18.87
2018-03-08T17:55:36.327Z,18.50
2018-03-08T17:58:03.824Z,14.53
2018-03-08T18:00:31.308Z,19.17
2018-03-08T18:02:59.574Z,13.53
2018-03-08T18:05:27.110Z,17.90
2018-03-08T18:07:54.574Z,11.43
2018-03-08T18:10:22.104Z,6.17
2018-03-08T18:12:49.589Z,3.27
2018-03-08T18:15:17.056Z,2.77
2018-03-08T18:17:44.565Z,3.30
2018-03-08T18:20:12.047Z,4.30
2018-03-08T18:22:40.260Z,3.67
2018-03-08T18:25:07.752Z,3.97
2018-03-08T18:27:35.283Z,3.17
2018-03-08T18:30:03.564Z,2.97
2018-03-08T18:32:31.830Z,3.40
2018-03-08T18:34:59.388Z,4.00
2018-03-08T18:37:26.900Z,2.80
2018-03-08T18:39:54.895Z,4.87
2018-03-08T18:42:22.412Z,3.03
2018-03-08T18:44:50.013Z,3.27
2018-03-08T18:47:17.512Z,4.43
2018-03-08T18:49:45.749Z,4.13
2018-03-08T18:52:13.259Z,6.90
2018-03-08T18:54:40.725Z,2.00
2018-03-08T18:57:08.225Z,2.90
2018-03-08T18:59:35.755Z,2.93
2018-03-08T19:02:03.249Z,3.03
2018-03-08T19:04:30.736Z,6.33
2018-03-08T19:06:58.269Z,3.77
2018-03-08T19:09:25.728Z,5.30
2018-03-08T19:11:53.219Z,4.57
2018-03-08T19:14:20.728Z,3.93
2018-03-08T19:16:48.288Z,2.63
2018-03-08T19:19:15.810Z,4.43
2018-03-08T19:21:43.301Z,3.40
2018-03-08T19:24:10.819Z,5.10
2018-03-08T19:26:38.301Z,3.00
2018-03-08T19:29:05.808Z,11.67
2018-03-08T19:31:34.051Z,5.40
2018-03-08T19:34:01.545Z,3.17
2018-03-08T19:36:29.789Z,4.60
2018-03-08T19:38:57.647Z,10.03
2018-03-08T19:41:25.146Z,7.33
2018-03-08T19:43:53.403Z,3.83
2018-03-08T19:46:20.903Z,5.73
2018-03-08T19:48:48.614Z,4.17
2018-03-08T19:51:16.100Z,8.70
2018-03-08T19:53:44.676Z,12.57
2018-03-08T19:56:12.960Z,8.87
2018-03-08T19:58:41.230Z,10.90
2018-03-08T20:01:09.529Z,10.80
2018-03-08T20:03:37.069Z,8.33
2018-03-08T20:06:04.532Z,6.60
2018-03-08T20:08:33.135Z,8.20
2018-03-08T20:11:00.660Z,10.53
2018-03-08T20:13:28.905Z,21.97
2018-03-08T20:15:56.405Z,31.53
2018-03-08T20:18:24.810Z,23.73
2018-03-08T20:20:52.319Z,24.40
2018-03-08T20:23:19.852Z,26.30
2018-03-08T20:25:47.347Z,25.90
2018-03-08T20:28:15.585Z,28.10
2018-03-08T20:30:43.093Z,24.47
2018-03-08T20:33:11.340Z,16.13
2018-03-08T20:35:38.825Z,13.33
2018-03-08T20:38:07.059Z,5.00
2018-03-08T20:40:34.565Z,7.23
2018-03-08T20:43:02.808Z,6.77
2018-03-08T20:45:30.318Z,7.93
2018-03-08T20:47:57.812Z,8.83
2018-03-08T20:50:25.311Z,10.60
2018-03-08T20:52:53.561Z,8.33
2018-03-08T20:55:21.108Z,18.77
2018-03-08T20:57:48.568Z,19.50
2018-03-08T21:00:16.187Z,19.40
2018-03-08T21:02:43.686Z,22.53
2018-03-08T21:05:11.164Z,23.77
2018-03-08T21:07:38.669Z,27.70
2018-03-08T21:10:06.189Z,29.20
2018-03-08T21:12:34.473Z,18.00
2018-03-08T21:15:02.731Z,15.63
2018-03-08T21:17:30.242Z,9.77
2018-03-08T21:19:57.721Z,12.00
2018-03-08T21:22:25.348Z,8.57
2018-03-08T21:24:52.825Z,12.70
2018-03-08T21:27:20.316Z,19.03
2018-03-08T21:29:47.799Z,29.20
2018-03-08T21:32:15.278Z,16.17
2018-03-08T21:34:42.768Z,13.90
2018-03-08T21:37:10.291Z,8.60
2018-03-08T21:39:37.842Z,12.70
2018-03-08T21:42:05.322Z,9.50
2018-03-08T21:44:32.812Z,8.60
2018-03-08T21:47:00.319Z,13.87
2018-03-08T21:49:27.849Z,12.47
2018-03-08T21:51:55.337Z,15.03
2018-03-08T21:54:22.836Z,10.77
2018-03-08T21:56:50.310Z,14.23
2018-03-08T21:59:17.813Z,8.53
2018-03-08T22:01:45.280Z,11.97
2018-03-08T22:04:12.927Z,12.50
2018-03-08T22:06:40.403Z,11.57
2018-03-08T22:09:07.897Z,10.30
2018-03-08T22:11:35.397Z,20.93
2018-03-08T22:14:02.891Z,12.83
2018-03-08T22:16:30.423Z,16.13
2018-03-08T22:18:57.892Z,11.47
2018-03-08T22:21:25.405Z,7.30
2018-03-08T22:23:52.859Z,8.17
2018-03-08T22:26:20.357Z,14.43
2018-03-08T22:28:47.834Z,14.90
2018-03-08T22:31:15.336Z,10.67
2018-03-08T22:33:42.832Z,15.10
2018-03-08T22:36:10.320Z,11.63
2018-03-08T22:38:37.803Z,12.03
2018-03-08T22:41:05.316Z,10.97
2018-03-08T22:43:32.820Z,13.00
2018-03-08T22:46:00.309Z,13.60
2018-03-08T22:48:27.852Z,15.07
2018-03-08T22:50:55.307Z,14.93
2018-03-08T22:53:23.594Z,11.13
2018-03-08T22:55:51.860Z,11.83
2018-03-08T22:58:20.105Z,11.33
2018-03-08T23:00:47.628Z,13.00
2018-03-08T23:03:20.787Z,11.83
2018-03-08T23:05:49.054Z,10.60
2018-03-08T23:08:17.306Z,13.20
2018-03-08T23:10:44.806Z,14.47
2018-03-08T23:13:12.301Z,14.93
2018-03-08T23:15:39.815Z,18.83
2018-03-08T23:18:08.049Z,11.87
2018-03-08T23:20:35.550Z,15.17
2018-03-08T23:23:03.798Z,8.77
2018-03-08T23:25:31.398Z,10.93
2018-03-08T23:27:58.888Z,12.57
2018-03-08T23:30:26.380Z,11.50
2018-03-08T23:32:54.695Z,11.20
2018-03-08T23:35:22.207Z,14.13
2018-03-08T23:37:49.683Z,19.83
2018-03-08T23:40:17.197Z,24.53
2018-03-08T23:42:44.684Z,23.10
2018-03-08T23:45:12.171Z,21.50
2018-03-08T23:47:40.436Z,20.00
2018-03-08T23:50:08.684Z,18.57
2018-03-08T23:52:36.177Z,22.90
2018-03-08T23:55:03.668Z,15.90
2018-03-08T23:57:31.163Z,26.20
2018-03-08T23:59:58.649Z,29.63
